Time;durP1;ratioP1;P1;durP2;ratioP2;P2;SDS_P1;SDS_P2;PMS_P1;PMS_P2;Temp;Humidity;BMP_temperature;BMP_pressure;BME280_temperature;BME280_humidity;BME280_pressure;Samples;Min_cycle;Max_cycle;Signal;HPM_P1;HPM_P2
2021/04/05 00:00:09;;;;;;;9.58;7.53;;;;;;;8.14;58.13;100314.26;1763821;80;21781;-62
2021/04/05 00:02:36;;;;;;;10.05;8.00;;;;;;;8.13;58.09;100316.90;1786351;80;21162;-62
2021/04/05 00:05:26;;;;;;;9.05;7.35;;;;;;;8.12;58.21;100324.33;1768643;80;21162;-50
2021/04/05 00:07:54;;;;;;;11.30;8.08;;;;;;;8.09;57.98;100331.75;1787059;80;21088;-51
2021/04/05 00:10:35;;;;;;;11.12;8.33;;;;;;;8.00;58.01;100332.66;1791082;80;21151;-63
2021/04/05 00:13:09;;;;;;;9.45;7.80;;;;;;;7.97;58.16;100329.15;1782350;80;21087;-49
2021/04/05 00:15:36;;;;;;;11.08;8.28;;;;;;;7.97;58.27;100327.42;1780670;80;21682;-50
2021/04/05 00:18:05;;;;;;;9.93;7.95;;;;;;;7.98;58.28;100333.52;1792874;80;21127;-50
2021/04/05 00:20:37;;;;;;;11.88;8.73;;;;;;;7.97;58.27;100335.70;1790689;80;21637;-62
2021/04/05 00:23:05;;;;;;;11.20;8.20;;;;;;;7.93;58.17;100333.54;1789928;79;21143;-62
2021/04/05 00:25:33;;;;;;;10.72;8.43;;;;;;;7.94;58.15;100333.12;1762757;80;21565;-62
2021/04/05 00:28:01;;;;;;;10.85;8.35;;;;;;;7.87;58.28;100330.92;1766905;80;21142;-50
2021/04/05 00:30:33;;;;;;;11.78;9.33;;;;;;;7.84;58.34;100329.62;1785513;80;21135;-50
2021/04/05 00:33:01;;;;;;;12.35;9.23;;;;;;;7.81;58.26;100334.44;1779897;80;21158;-62
2021/04/05 00:35:32;;;;;;;11.03;7.97;;;;;;;7.77;58.18;100331.39;1762412;81;21182;-50
2021/04/05 00:38:04;;;;;;;9.75;8.25;;;;;;;7.71;58.14;100325.73;1771096;80;21613;-50
2021/04/05 00:40:44;;;;;;;;;;;;;;;7.65;58.18;100327.05;1793458;80;21583;-50
2021/04/05 00:43:13;;;;;;;9.70;7.50;;;;;;;7.63;58.30;100326.17;1765273;80;20246;-50
2021/04/05 00:45:41;;;;;;;11.18;7.00;;;;;;;7.62;58.33;100319.61;1768650;80;21558;-50
2021/04/05 00:48:10;;;;;;;10.38;7.33;;;;;;;7.67;58.08;100317.86;1756354;80;21263;-50
2021/04/05 00:50:52;;;;;;;9.23;7.03;;;;;;;7.64;58.00;100308.27;1786056;80;21155;-49
2021/04/05 00:53:24;;;;;;;8.38;7.12;;;;;;;7.54;58.13;100313.94;1766051;80;21150;-51
2021/04/05 00:55:52;;;;;;;7.15;5.95;;;;;;;7.61;57.97;100321.38;1761856;81;21606;-50
2021/04/05 00:58:20;;;;;;;9.40;6.55;;;;;;;7.59;57.64;100322.66;1789601;80;21162;-50
2021/04/05 01:00:54;;;;;;;9.23;6.40;;;;;;;7.53;57.61;100321.36;1782558;80;21127;-63
2021/04/05 01:03:24;;;;;;;8.95;6.50;;;;;;;7.53;57.74;100325.73;1785053;80;21091;-50
2021/04/05 01:05:58;;;;;;;7.00;5.62;;;;;;;7.51;57.73;100324.41;1761593;81;21190;-50
2021/04/05 01:08:26;;;;;;;8.45;6.20;;;;;;;7.51;57.63;100328.34;1780589;80;21678;-50
2021/04/05 01:10:55;;;;;;;8.10;5.83;;;;;;;7.50;57.62;100327.05;1784158;80;21111;-50
2021/04/05 01:13:23;;;;;;;8.58;5.55;;;;;;;7.47;57.33;100325.31;1792696;80;21111;-50
2021/04/05 01:15:51;;;;;;;9.90;5.72;;;;;;;7.43;57.40;100326.19;1792492;80;21143;-62
2021/04/05 01:18:20;;;;;;;7.65;5.83;;;;;;;7.39;57.34;100329.67;1783905;80;21139;-62
2021/04/05 01:20:48;;;;;;;8.75;6.12;;;;;;;7.36;57.32;100329.22;1765065;80;21606;-50
2021/04/05 01:23:17;;;;;;;7.45;5.60;;;;;;;7.34;57.33;100330.11;1761685;80;21134;-51
2021/04/05 01:25:44;;;;;;;8.48;6.53;;;;;;;7.30;57.28;100331.83;1766255;80;21611;-63
2021/04/05 01:28:13;;;;;;;7.50;5.37;;;;;;;7.28;57.31;100332.30;1783796;80;21128;-62
2021/04/05 01:30:45;;;;;;;7.45;5.70;;;;;;;7.23;57.10;100337.52;1790381;80;21304;-51
2021/04/05 01:33:23;;;;;;;7.47;5.42;;;;;;;7.21;57.11;100330.55;1792162;80;21111;-50
2021/04/05 01:36:10;;;;;;;8.10;5.53;;;;;;;7.18;57.07;100333.16;1767131;80;21111;-50
2021/04/05 01:38:48;;;;;;;7.50;5.33;;;;;;;7.13;57.17;100331.83;1765743;80;21276;-50
2021/04/05 01:41:22;;;;;;;6.83;4.75;;;;;;;7.08;57.13;100330.52;1773045;80;21164;-63
2021/04/05 01:43:50;;;;;;;6.37;5.00;;;;;;;7.06;56.97;100327.48;1792908;80;21253;-51
2021/04/05 01:46:19;;;;;;;10.70;5.80;;;;;;;7.04;57.13;100326.16;1774651;79;21522;-51
2021/04/05 01:48:47;;;;;;;7.53;5.10;;;;;;;7.04;57.14;100320.06;1761689;81;21115;-63
2021/04/05 01:51:20;;;;;;;7.35;5.42;;;;;;;7.04;57.13;100313.06;1764041;80;21523;-51
2021/04/05 01:53:49;;;;;;;8.53;5.62;;;;;;;7.03;57.00;100317.86;1769381;80;21344;-51
2021/04/05 01:56:18;;;;;;;7.72;5.25;;;;;;;7.01;57.07;100320.91;1785452;80;21144;-52
2021/04/05 01:58:48;;;;;;;7.22;5.33;;;;;;;7.02;57.09;100323.11;1761451;81;21427;-63
2021/04/05 02:01:24;;;;;;;8.48;5.30;;;;;;;7.01;57.06;100322.22;1763607;80;21155;-64
2021/04/05 02:03:51;;;;;;;6.72;5.00;;;;;;;7.01;57.01;100322.22;1772505;80;21665;-63
2021/04/05 02:06:27;;;;;;;7.80;5.25;;;;;;;7.01;56.90;100323.98;1775519;80;21184;-51
2021/04/05 02:08:57;;;;;;;10.05;5.67;;;;;;;7.00;56.95;100316.55;1757007;81;21273;-50
2021/04/05 02:11:29;;;;;;;8.43;4.85;;;;;;;6.99;56.88;100314.38;1776008;80;21175;-51
2021/04/05 02:13:59;;;;;;;7.65;5.45;;;;;;;6.98;56.87;100311.75;1784751;80;21127;-51
2021/04/05 02:16:28;;;;;;;8.08;5.95;;;;;;;6.97;56.73;100308.69;1778921;80;22382;-63
2021/04/05 02:18:58;;;;;;;8.03;5.30;;;;;;;6.93;56.67;100308.25;1763494;80;21142;-60
2021/04/05 02:21:27;;;;;;;6.97;4.90;;;;;;;6.87;56.68;100306.50;1763509;80;21538;-63
2021/04/05 02:24:02;;;;;;;8.08;5.70;;;;;;;6.83;56.64;100303.02;1786553;80;21139;-52
2021/04/05 02:26:31;;;;;;;10.78;5.20;;;;;;;6.82;56.68;100306.51;1775669;80;21589;-51
2021/04/05 02:29:00;;;;;;;7.67;5.10;;;;;;;6.79;56.68;100305.19;1761783;80;21175;-51
2021/04/05 02:31:30;;;;;;;7.70;5.00;;;;;;;6.77;56.58;100306.05;1781074;80;21291;-51
2021/04/05 02:33:59;;;;;;;8.38;5.25;;;;;;;6.74;56.56;100307.34;1786319;80;21289;-52
2021/04/05 02:36:30;;;;;;;7.90;5.17;;;;;;;6.69;56.63;100304.28;1787403;79;21172;-63
2021/04/05 02:39:05;;;;;;;6.37;4.47;;;;;;;6.68;56.75;100295.13;1784622;80;21301;-51
2021/04/05 02:41:35;;;;;;;7.30;4.80;;;;;;;6.64;56.68;100299.91;1773702;80;21155;-50
2021/04/05 02:44:05;;;;;;;6.75;4.65;;;;;;;6.60;56.74;100302.97;1787038;80;21147;-51
2021/04/05 02:46:35;;;;;;;7.42;5.20;;;;;;;6.54;56.65;100301.64;1784599;80;21168;-51
2021/04/05 02:49:06;;;;;;;8.90;5.05;;;;;;;6.51;56.77;100305.09;1782825;80;21124;-63
2021/04/05 02:51:33;;;;;;;6.78;4.75;;;;;;;6.46;56.67;100297.67;1784504;80;21324;-63
2021/04/05 02:54:01;;;;;;;7.35;5.28;;;;;;;6.43;56.72;100295.50;1783593;80;21582;-63
2021/04/05 02:56:30;;;;;;;7.92;5.62;;;;;;;6.42;56.73;100295.91;1787087;80;21631;-51
2021/04/05 02:58:58;;;;;;;10.80;8.73;;;;;;;6.45;56.61;100298.98;1778629;80;21100;-50
2021/04/05 03:01:27;;;;;;;8.20;6.17;;;;;;;6.42;56.63;100297.22;1787379;80;21127;-51
2021/04/05 03:03:56;;;;;;;9.78;5.35;;;;;;;6.39;56.56;100290.70;1772158;80;21585;-60
2021/04/05 03:06:26;;;;;;;7.95;5.25;;;;;;;6.36;56.58;100288.08;1756340;82;21178;-51
2021/04/05 03:08:54;;;;;;;7.10;5.17;;;;;;;6.33;56.69;100285.00;1764003;80;21139;-51
2021/04/05 03:11:22;;;;;;;8.15;4.65;;;;;;;6.32;56.64;100285.86;1756255;82;21166;-52
2021/04/05 03:13:51;;;;;;;7.58;5.30;;;;;;;6.29;56.58;100280.63;1758236;80;21126;-51
2021/04/05 03:16:24;;;;;;;8.05;4.90;;;;;;;6.25;56.56;100283.67;1738957;80;21154;-64
2021/04/05 03:18:55;;;;;;;7.45;5.03;;;;;;;6.24;56.67;100287.16;1783400;80;21638;-63
2021/04/05 03:21:25;;;;;;;7.12;4.85;;;;;;;6.25;56.76;100282.36;1787357;80;21192;-63
2021/04/05 03:23:53;;;;;;;6.50;4.95;;;;;;;6.28;56.79;100279.33;1761449;80;21136;-63
2021/04/05 03:26:20;;;;;;;6.22;4.45;;;;;;;6.29;56.80;100283.69;1770274;80;21870;-64
2021/04/05 03:28:48;;;;;;;16.48;5.20;;;;;;;6.29;56.67;100284.55;1787168;80;21304;-62
2021/04/05 03:31:17;;;;;;;9.70;4.83;;;;;;;6.29;56.81;100285.85;1773291;80;21179;-50
2021/04/05 03:33:55;;;;;;;7.80;4.65;;;;;;;6.31;56.87;100275.42;1779654;80;21179;-64
2021/04/05 03:36:34;;;;;;;8.08;4.75;;;;;;;6.32;56.84;100272.80;1778435;80;21130;-51
2021/04/05 03:39:02;;;;;;;11.60;4.78;;;;;;;6.34;56.83;100276.73;1761403;81;21159;-63
2021/04/05 03:41:59;;;;;;;7.72;4.80;;;;;;;6.44;56.65;100278.94;1763673;80;21590;-63
2021/04/05 03:44:59;;;;;;;6.87;4.47;;;;;;;6.45;56.55;100276.77;1773012;80;21539;-63
2021/04/05 03:48:08;;;;;;;6.33;4.65;;;;;;;6.42;56.41;100274.14;1761506;81;21166;-51
2021/04/05 03:51:08;;;;;;;8.45;4.22;;;;;;;6.39;56.30;100281.10;1761531;81;21176;-51
2021/04/05 03:53:59;;;;;;;6.10;4.45;;;;;;;6.31;56.67;100276.27;1772694;80;21115;-63
2021/04/05 03:56:38;;;;;;;8.50;4.45;;;;;;;6.36;56.97;100282.40;1761477;80;21188;-63
2021/04/05 03:59:12;;;;;;;8.30;4.85;;;;;;;6.41;56.93;100275.86;1761398;81;21131;-63
2021/04/05 04:01:46;;;;;;;9.05;4.90;;;;;;;6.45;56.87;100279.38;1757433;80;21119;-64
2021/04/05 04:04:22;;;;;;;7.37;4.70;;;;;;;6.49;56.90;100277.22;1778134;80;21273;-63
2021/04/05 04:09:11;;;;;;;7.70;4.17;;;;;;;6.62;57.19;100276.80;1775231;80;21526;-52
2021/04/05 04:11:40;;;;;;;11.40;4.92;;;;;;;6.67;57.20;100277.24;1773660;80;21122;-52
2021/04/05 04:14:09;;;;;;;8.30;4.75;;;;;;;6.73;57.16;100284.67;1764707;80;21151;-52
2021/04/05 04:16:37;;;;;;;10.45;5.00;;;;;;;6.76;57.21;100286.88;1761523;81;21143;-52
2021/04/05 04:19:05;;;;;;;7.20;4.58;;;;;;;6.81;57.11;100286.87;1725485;80;21127;-60
2021/04/05 04:21:33;;;;;;;6.33;4.08;;;;;;;6.83;57.11;100286.02;1761150;80;21612;-54
2021/04/05 04:24:02;;;;;;;10.00;4.70;;;;;;;6.86;56.93;100282.52;1776127;79;21127;-52
2021/04/05 04:26:34;;;;;;;9.18;4.80;;;;;;;6.88;56.99;100288.63;1775636;80;21585;-52
2021/04/05 04:29:04;;;;;;;6.25;4.20;;;;;;;6.87;57.08;100284.27;1773723;80;21142;-51
2021/04/05 04:31:31;;;;;;;7.58;4.33;;;;;;;6.90;57.12;100288.61;1777624;79;21306;-50
2021/04/05 04:33:59;;;;;;;6.30;4.35;;;;;;;6.91;57.09;100287.33;1705791;83;21645;-52
2021/04/05 04:36:27;;;;;;;12.00;5.35;;;;;;;6.94;57.12;100287.75;1749254;82;21647;-50
2021/04/05 04:38:55;;;;;;;9.23;4.50;;;;;;;6.98;57.16;100288.20;1777641;80;21598;-51
2021/04/05 04:41:27;;;;;;;6.75;4.47;;;;;;;7.01;57.03;100286.03;1756064;81;21170;-51
2021/04/05 04:44:00;;;;;;;7.40;4.62;;;;;;;7.05;57.21;100288.64;1756353;82;21151;-51
2021/04/05 04:46:28;;;;;;;11.03;4.87;;;;;;;7.11;57.39;100282.11;1756402;82;21597;-50
2021/04/05 04:49:04;;;;;;;7.05;4.17;;;;;;;7.19;57.55;100278.17;1765474;80;21582;-51
2021/04/05 04:51:32;;;;;;;8.93;5.00;;;;;;;7.28;57.71;100279.48;1756005;82;21683;-62
2021/04/05 04:54:02;;;;;;;8.73;5.12;;;;;;;7.36;57.61;100276.85;1755722;82;21206;-52
2021/04/05 04:56:30;;;;;;;7.35;4.72;;;;;;;7.46;57.74;100275.54;1759010;80;21694;-51
2021/04/05 04:59:03;;;;;;;9.40;4.65;;;;;;;7.51;57.81;100272.48;1768808;80;21427;-52
2021/04/05 05:01:33;;;;;;;6.90;4.95;;;;;;;7.60;57.88;100273.78;1774864;80;21586;-51
2021/04/05 05:04:11;;;;;;;9.55;4.80;;;;;;;7.70;57.83;100267.66;1772754;80;21590;-51
2021/04/05 05:06:39;;;;;;;8.80;4.95;;;;;;;7.82;57.82;100265.86;1767808;80;21127;-51
2021/04/05 05:09:07;;;;;;;7.37;5.03;;;;;;;7.95;58.13;100267.58;1770813;80;21621;-62
2021/04/05 05:11:36;;;;;;;10.23;5.05;;;;;;;8.04;58.04;100263.62;1771791;80;21152;-62
2021/04/05 05:14:04;;;;;;;7.17;4.90;;;;;;;8.16;57.80;100264.45;1786965;79;21171;-62
2021/04/05 05:16:31;;;;;;;8.10;4.78;;;;;;;8.27;58.04;100258.70;1761814;80;21554;-62
2021/04/05 05:19:00;;;;;;;8.73;5.15;;;;;;;8.40;57.93;100262.12;1757651;80;21344;-51
2021/04/05 05:21:52;;;;;;;8.55;5.05;;;;;;;8.52;57.92;100262.56;1777636;80;21628;-52
2021/04/05 05:24:22;;;;;;;7.08;4.40;;;;;;;8.62;58.13;100257.66;1769667;80;21143;-52
2021/04/05 05:26:50;;;;;;;7.83;4.95;;;;;;;8.77;57.65;100258.03;1769699;80;21527;-62
2021/04/05 05:29:18;;;;;;;5.60;4.37;;;;;;;8.88;57.72;100254.01;1737342;82;21328;-53
2021/04/05 05:31:46;;;;;;;6.30;4.80;;;;;;;9.00;57.93;100253.50;1756503;82;21178;-62
2021/04/05 05:34:20;;;;;;;7.75;4.95;;;;;;;8.97;57.94;100258.77;1774202;80;21265;-62
2021/04/05 05:36:49;;;;;;;12.05;5.10;;;;;;;9.23;57.59;100262.49;1765106;79;21203;-53
2021/04/05 05:39:18;;;;;;;8.20;4.70;;;;;;;9.37;57.12;100261.91;1761705;81;21765;-52
2021/04/05 05:42:10;;;;;;;5.90;4.37;;;;;;;9.49;57.09;100256.12;1764278;80;21778;-63
2021/04/05 05:45:02;;;;;;;7.08;4.83;;;;;;;9.59;57.10;100256.46;1777750;80;21586;-63
2021/04/05 05:48:08;;;;;;;7.70;4.85;;;;;;;9.73;56.46;100260.25;1774359;80;21186;-62
2021/04/05 05:50:51;;;;;;;6.78;4.70;;;;;;;9.81;56.01;100252.27;1764700;79;21131;-52
2021/04/05 05:54:09;;;;;;;8.78;4.45;;;;;;;9.90;55.33;100248.69;1789925;80;21154;-63
2021/04/05 05:57:05;;;;;;;6.28;4.35;;;;;;;9.97;55.59;100243.33;1768113;79;21539;-63
2021/04/05 05:59:53;;;;;;;6.22;4.53;;;;;;;10.09;55.13;100247.56;1761820;80;21146;-62
2021/04/05 06:03:08;;;;;;;7.45;4.42;;;;;;;10.23;55.05;100244.75;1766761;80;21261;-62
2021/04/05 06:06:18;;;;;;;5.90;4.35;;;;;;;10.39;55.06;100241.95;1818455;77;22186;-61
2021/04/05 06:09:09;;;;;;;5.10;3.65;;;;;;;10.46;54.69;100245.36;1761763;81;21210;-51
2021/04/05 06:12:08;;;;;;;6.42;4.17;;;;;;;10.62;53.50;100248.21;1761129;80;21558;-50
2021/04/05 06:15:15;;;;;;;6.47;4.35;;;;;;;10.81;53.89;100250.58;1719501;83;21176;-52
2021/04/05 06:18:07;;;;;;;6.67;4.20;;;;;;;10.94;53.71;100253.42;1698538;84;21518;-50
2021/04/05 06:21:07;;;;;;;6.05;3.95;;;;;;;11.08;53.65;100251.88;1671945;84;21147;-50
2021/04/05 06:23:53;;;;;;;6.47;4.20;;;;;;;11.22;53.20;100250.79;1706433;83;21537;-51
2021/04/05 06:27:00;;;;;;;8.03;4.20;;;;;;;11.42;52.82;100255.70;1720309;83;21170;-52
2021/04/05 06:30:07;;;;;;;5.37;3.45;;;;;;;11.57;53.05;100250.61;1712264;83;21625;-53
2021/04/05 06:32:58;;;;;;;6.85;4.10;;;;;;;11.80;51.36;100248.85;1714110;83;21321;-51
2021/04/05 06:35:41;;;;;;;;;;;;;;;12.05;50.87;100247.09;1721694;83;21682;-50
2021/04/05 06:38:27;;;;;;;6.90;4.42;;;;;;;12.28;51.58;100253.20;1698557;83;20146;-51
2021/04/05 06:40:56;;;;;;;5.28;3.67;;;;;;;12.47;50.83;100243.55;1693051;83;21310;-52
2021/04/05 06:43:49;;;;;;;7.08;4.25;;;;;;;12.63;50.88;100245.38;1691750;85;21598;-53
2021/04/05 06:47:09;;;;;;;6.55;4.05;;;;;;;12.84;50.18;100249.77;1688827;83;21617;-52
2021/04/05 06:49:56;;;;;;;5.10;3.58;;;;;;;13.00;49.80;100244.97;1707571;82;21154;-51
2021/04/05 06:52:52;;;;;;;7.17;4.08;;;;;;;13.31;50.04;100244.19;1718680;83;21559;-51
2021/04/05 06:55:31;;;;;;;5.95;4.17;;;;;;;13.61;49.23;100243.87;1708719;83;21625;-51
2021/04/05 06:58:28;;;;;;;5.92;3.87;;;;;;;13.83;48.74;100244.63;1691661;85;21143;-53
2021/04/05 07:01:20;;;;;;;6.62;3.77;;;;;;;14.05;48.64;100244.88;1701012;83;21576;-52
2021/04/05 07:04:43;;;;;;;7.20;3.70;;;;;;;14.27;47.09;100243.79;1707893;83;21679;-52
2021/04/05 07:07:53;;;;;;;12.85;3.40;;;;;;;14.36;46.86;100245.28;1756736;81;21119;-53
2021/04/05 07:10:28;;;;;;;3.95;2.80;;;;;;;14.51;44.97;100237.33;1756713;80;21624;-52
2021/04/05 07:13:26;;;;;;;6.65;3.20;;;;;;;14.63;45.65;100237.39;1751441;82;21155;-53
2021/04/05 07:16:21;;;;;;;6.10;3.30;;;;;;;14.74;44.77;100238.44;1721213;82;21526;-53
2021/04/05 07:19:02;;;;;;;4.53;2.90;;;;;;;14.98;44.28;100231.47;1751375;82;21510;-52
2021/04/05 07:22:05;;;;;;;4.75;2.87;;;;;;;15.16;43.63;100222.03;1756344;82;21607;-53
2021/04/05 07:24:39;;;;;;;5.80;2.90;;;;;;;15.29;43.32;100222.48;1726014;82;21293;-53
2021/04/05 07:27:20;;;;;;;5.17;2.92;;;;;;;15.34;42.14;100228.94;1726388;83;21655;-53
2021/04/05 07:29:56;;;;;;;4.90;3.00;;;;;;;15.52;42.16;100229.22;1734427;82;21511;-53
2021/04/05 07:33:01;;;;;;;4.22;2.95;;;;;;;15.65;42.40;100223.02;1729972;81;21317;-53
2021/04/05 07:36:10;;;;;;;4.95;2.80;;;;;;;15.81;41.86;100228.18;1755421;82;21605;-53
2021/04/05 07:39:03;;;;;;;4.78;2.83;;;;;;;16.14;42.38;100223.89;1756175;82;21610;-54
2021/04/05 07:41:48;;;;;;;4.20;2.77;;;;;;;16.22;40.98;100224.91;1756343;80;21547;-53
2021/04/05 07:44:28;;;;;;;3.40;2.40;;;;;;;16.39;40.10;100222.08;1756174;82;21151;-53
2021/04/05 07:47:39;;;;;;;4.12;2.40;;;;;;;16.41;37.92;100210.94;1755676;81;21167;-53
2021/04/05 07:50:35;;;;;;;3.75;2.45;;;;;;;16.38;36.80;100215.89;1756134;82;21571;-54
2021/04/05 07:53:36;;;;;;;4.83;2.75;;;;;;;16.26;36.43;100211.08;1756282;82;21159;-53
2021/04/05 07:56:35;;;;;;;3.55;2.42;;;;;;;16.11;37.29;100215.19;1756169;80;21135;-53
2021/04/05 07:59:44;;;;;;;5.47;2.52;;;;;;;16.24;37.50;100207.14;1730424;82;21312;-54
2021/04/05 08:02:49;;;;;;;4.83;2.62;;;;;;;16.36;37.76;100207.11;1691317;85;21743;-53
2021/04/05 08:05:28;;;;;;;3.37;2.15;;;;;;;16.55;34.65;100204.62;1727382;82;21159;-51
2021/04/05 08:08:30;;;;;;;3.67;2.50;;;;;;;16.68;35.71;100204.98;1687875;84;21564;-53
2021/04/05 08:11:46;;;;;;;4.45;2.52;;;;;;;16.80;36.00;100200.48;1707007;84;21144;-53
2021/04/05 08:14:57;;;;;;;4.85;2.15;;;;;;;16.99;34.45;100189.13;1707138;84;21187;-52
2021/04/05 08:17:54;;;;;;;4.05;2.17;;;;;;;17.02;31.26;100185.01;1699023;84;21610;-53
2021/04/05 08:20:37;;;;;;;5.90;2.05;;;;;;;16.75;32.16;100198.95;1679595;84;21674;-53
2021/04/05 08:23:30;;;;;;;3.83;2.30;;;;;;;16.54;30.19;100188.28;1679049;85;21598;-52
2021/04/05 08:26:22;;;;;;;3.50;2.10;;;;;;;16.55;32.87;100190.45;1679405;84;21705;-53
2021/04/05 08:28:52;;;;;;;4.62;2.50;;;;;;;16.86;34.46;100181.22;1658430;85;21325;-53
2021/04/05 08:32:07;;;;;;;5.12;2.70;;;;;;;16.98;33.69;100174.58;1700830;83;21559;-53
2021/04/05 08:35:06;;;;;;;5.65;3.00;;;;;;;16.81;34.25;100178.77;1700441;83;21175;-53
2021/04/05 08:37:45;;;;;;;5.35;2.75;;;;;;;16.54;34.07;100178.10;1707433;84;21586;-53
2021/04/05 08:40:30;;;;;;;4.35;2.72;;;;;;;16.42;34.89;100178.98;1707495;83;21698;-54
2021/04/05 08:43:25;;;;;;;4.15;2.70;;;;;;;16.70;35.57;100180.55;1701240;84;21143;-53
2021/04/05 08:46:11;;;;;;;3.62;2.42;;;;;;;17.16;33.36;100173.78;1700177;83;21149;-53
2021/04/05 08:48:41;;;;;;;3.75;2.22;;;;;;;17.18;33.52;100168.41;1707118;84;21313;-54
2021/04/05 08:51:14;;;;;;;3.75;2.27;;;;;;;17.39;33.63;100164.80;1707417;84;21728;-53
2021/04/05 08:53:53;;;;;;;5.50;2.83;;;;;;;17.57;31.63;100165.38;1680421;84;21504;-53
2021/04/05 08:56:22;;;;;;;8.08;2.22;;;;;;;17.32;30.43;100157.16;1682075;84;21195;-53
2021/04/05 08:58:56;;;;;;;3.87;1.92;;;;;;;17.18;31.05;100157.29;1741037;82;21573;-53
2021/04/05 09:01:29;;;;;;;4.05;2.40;;;;;;;17.17;32.83;100153.38;1723001;82;21599;-53
2021/04/05 09:03:57;;;;;;;4.65;2.83;;;;;;;17.19;31.92;100151.52;1682020;84;21598;-53
2021/04/05 09:06:34;;;;;;;3.75;2.25;;;;;;;17.12;33.05;100148.25;1692444;83;21308;-53
2021/04/05 09:09:03;;;;;;;3.45;2.33;;;;;;;17.15;31.95;100150.77;1743828;82;21136;-53
2021/04/05 09:11:33;;;;;;;4.55;2.15;;;;;;;17.01;31.78;100141.19;1723486;82;21531;-53
2021/04/05 09:14:03;;;;;;;4.20;2.12;;;;;;;17.16;32.41;100139.69;1725449;81;21112;-54
2021/04/05 09:17:10;;;;;;;3.45;2.17;;;;;;;17.48;31.95;100145.37;1730572;82;21559;-53
2021/04/05 09:20:10;;;;;;;3.30;2.08;;;;;;;17.50;30.38;100135.52;1733973;81;21154;-53
2021/04/05 09:23:03;;;;;;;3.08;1.67;;;;;;;17.18;29.28;100139.16;1683936;85;21582;-53
2021/04/05 09:26:01;;;;;;;3.08;1.77;;;;;;;17.12;29.78;100136.28;1747829;82;21281;-53
2021/04/05 09:29:20;;;;;;;5.65;2.00;;;;;;;17.11;29.19;100139.88;1745436;82;21127;-53
2021/04/05 09:32:02;;;;;;;2.27;1.42;;;;;;;16.75;28.82;100134.72;1707167;84;21685;-54
2021/04/05 09:35:11;;;;;;;4.55;2.10;;;;;;;16.74;30.06;100137.42;1709576;84;21285;-52
2021/04/05 09:37:56;;;;;;;3.33;1.77;;;;;;;16.91;29.29;100136.70;1827017;77;22139;-51
2021/04/05 09:40:36;;;;;;;2.83;1.70;;;;;;;16.86;29.23;100132.92;1764240;80;21118;-53
2021/04/05 09:43:17;;;;;;;;;;;;;;;16.91;29.15;100134.93;1755852;80;21549;-54
2021/04/05 09:46:01;;;;;;;22.85;9.63;;;;;;;16.68;29.56;100130.59;1796048;80;20392;-53
2021/04/05 09:49:14;;;;;;;8.45;3.98;;;;;;;16.59;30.70;100124.31;1776699;80;21116;-53
2021/04/05 09:52:14;;;;;;;3.15;2.00;;;;;;;16.62;30.25;100122.86;1779559;80;21548;-53
2021/04/05 09:55:05;;;;;;;3.42;2.08;;;;;;;16.93;30.03;100122.44;1761341;81;21193;-53
2021/04/05 09:57:36;;;;;;;3.62;2.17;;;;;;;17.26;30.57;100121.52;1764842;80;21145;-53
2021/04/05 10:00:14;;;;;;;4.78;2.47;;;;;;;17.63;30.87;100118.08;1786964;80;21131;-54
2021/04/05 10:02:48;;;;;;;5.53;3.20;;;;;;;17.72;31.48;100115.45;1742640;81;21118;-55
2021/04/05 10:05:18;;;;;;;4.62;2.52;;;;;;;17.82;30.22;100114.09;1762036;81;21622;-52
2021/04/05 10:07:50;;;;;;;9.13;5.85;;;;;;;17.66;29.51;100116.58;1761905;81;21305;-52
2021/04/05 10:10:18;;;;;;;5.22;2.67;;;;;;;17.31;29.39;100117.72;1764968;80;21646;-53
2021/04/05 10:12:47;;;;;;;3.95;1.90;;;;;;;17.13;30.06;100111.42;1770507;80;21168;-53
2021/04/05 10:15:17;;;;;;;5.55;2.00;;;;;;;17.10;30.33;100099.59;1726508;83;21118;-53
2021/04/05 10:17:51;;;;;;;3.08;1.80;;;;;;;17.19;28.70;100112.48;1691966;85;21767;-53
2021/04/05 10:20:25;;;;;;;3.45;1.80;;;;;;;17.20;29.81;100112.88;1727428;83;21620;-53
2021/04/05 10:22:53;;;;;;;3.85;2.20;;;;;;;17.08;28.89;100113.41;1718253;83;21174;-54
2021/04/05 10:25:24;;;;;;;3.90;2.45;;;;;;;16.92;29.72;100114.52;1697848;84;21588;-53
2021/04/05 10:27:59;;;;;;;7.45;2.65;;;;;;;16.77;29.92;100116.92;1732221;83;21151;-53
2021/04/05 10:30:33;;;;;;;5.33;2.35;;;;;;;16.67;30.62;100121.33;1742212;82;21182;-52
2021/04/05 10:33:04;;;;;;;3.15;1.87;;;;;;;16.83;29.19;100114.90;1720776;82;21154;-53
2021/04/05 10:35:34;;;;;;;2.98;1.55;;;;;;;16.92;29.86;100111.41;1728404;83;21755;-52
2021/04/05 10:38:04;;;;;;;3.22;1.87;;;;;;;16.89;30.09;100112.86;1704702;84;21187;-53
2021/04/05 10:40:34;;;;;;;2.10;1.62;;;;;;;17.07;28.81;100112.56;1717323;83;21161;-52
2021/04/05 10:43:22;;;;;;;5.08;2.10;;;;;;;17.16;27.97;100099.80;1720568;83;21114;-52
2021/04/05 10:45:57;;;;;;;4.83;2.20;;;;;;;17.14;27.42;100110.48;1756882;82;21632;-54
2021/04/05 10:48:43;;;;;;;5.72;2.40;;;;;;;17.13;27.12;100101.27;1756565;82;21147;-54
2021/04/05 10:51:22;;;;;;;3.15;1.90;;;;;;;16.94;26.80;100113.98;1758908;80;21592;-53
2021/04/05 10:54:13;;;;;;;4.05;2.00;;;;;;;16.83;27.28;100102.94;1756327;80;21138;-53
2021/04/05 10:56:50;;;;;;;4.40;2.02;;;;;;;17.04;27.75;100104.72;1756163;82;21562;-52
2021/04/05 10:59:24;;;;;;;5.45;2.47;;;;;;;16.98;26.68;100100.14;1756272;80;21131;-53
2021/04/05 11:01:58;;;;;;;6.03;2.70;;;;;;;17.20;27.53;100092.94;1756350;81;21523;-52
2021/04/05 11:04:28;;;;;;;4.22;2.35;;;;;;;17.33;28.06;100084.41;1756113;82;21285;-53
2021/04/05 11:06:56;;;;;;;2.80;1.70;;;;;;;17.60;26.98;100082.30;1737445;82;21154;-52
2021/04/05 11:09:24;;;;;;;4.83;2.62;;;;;;;17.74;25.25;100080.31;1765540;80;21099;-52
2021/04/05 11:11:52;;;;;;;6.53;3.52;;;;;;;17.78;26.51;100087.22;1787314;80;21547;-53
2021/04/05 11:14:23;;;;;;;3.62;2.25;;;;;;;17.65;25.94;100078.07;1787330;80;21167;-53
2021/04/05 11:16:53;;;;;;;2.70;1.77;;;;;;;17.56;25.62;100081.16;1782017;80;21134;-52
2021/04/05 11:19:41;;;;;;;14.25;6.87;;;;;;;17.71;25.41;100080.45;1781318;80;21131;-52
2021/04/05 11:22:18;;;;;;;6.40;4.45;;;;;;;17.82;25.84;100071.50;1776797;80;21178;-53
2021/04/05 11:25:03;;;;;;;3.35;1.98;;;;;;;18.25;24.82;100057.92;1787111;80;21087;-53
2021/04/05 11:27:35;;;;;;;3.12;1.90;;;;;;;18.63;25.84;100058.27;1761232;80;21191;-53
2021/04/05 11:30:05;;;;;;;6.00;2.45;;;;;;;18.78;24.70;100053.95;1787110;80;21143;-53
2021/04/05 11:32:36;;;;;;;;;;;;;;;18.76;25.08;100056.31;1790149;80;21205;-53
2021/04/05 11:35:06;;;;;;;;;;;;;;;18.48;24.88;100057.70;1764802;80;20159;-53
2021/04/05 11:37:35;;;;;;;5.42;3.83;;;;;;;18.30;25.14;100052.38;1750799;81;20172;-53
2021/04/05 11:40:13;;;;;;;8.18;5.35;;;;;;;18.01;25.17;100051.15;1748060;82;21307;-52
2021/04/05 11:42:46;;;;;;;22.73;13.10;;;;;;;17.71;24.66;100056.50;1748425;82;21195;-53
2021/04/05 11:45:32;;;;;;;12.10;7.35;;;;;;;17.37;25.24;100054.09;1747990;81;21171;-53
2021/04/05 11:48:08;;;;;;;4.95;3.10;;;;;;;17.01;26.30;100050.34;1743268;82;21115;-53
2021/04/05 11:50:36;;;;;;;4.53;2.83;;;;;;;16.91;26.72;100047.20;1751192;81;21322;-53
2021/04/05 11:53:06;;;;;;;5.42;2.95;;;;;;;16.90;26.38;100045.93;1675940;84;21534;-53
2021/04/05 11:55:35;;;;;;;4.45;2.67;;;;;;;16.85;26.91;100036.84;1748087;81;21164;-52
2021/04/05 11:58:16;;;;;;;3.98;2.58;;;;;;;16.71;26.69;100040.11;1757379;81;21151;-52
2021/04/05 12:00:47;;;;;;;3.33;2.20;;;;;;;16.62;26.78;100034.70;1746399;82;21140;-52
2021/04/05 12:03:23;;;;;;;4.00;2.25;;;;;;;16.62;27.14;100032.05;1748924;81;21143;-51
2021/04/05 12:06:04;;;;;;;3.33;1.70;;;;;;;16.67;25.99;100034.52;1738698;81;21642;-52
2021/04/05 12:08:49;;;;;;;2.55;1.72;;;;;;;16.39;25.59;100033.03;1760756;81;21259;-52
2021/04/05 12:11:19;;;;;;;4.03;2.27;;;;;;;16.47;26.23;100035.38;1770481;80;21147;-51
2021/04/05 12:13:54;;;;;;;4.10;2.00;;;;;;;16.61;27.25;100025.48;1734131;82;21144;-52
2021/04/05 12:16:27;;;;;;;4.15;2.00;;;;;;;16.76;26.94;100020.84;1757549;81;21208;-52
2021/04/05 12:18:56;;;;;;;3.67;2.35;;;;;;;16.89;26.71;100022.94;1685085;84;21265;-52
2021/04/05 12:21:29;;;;;;;3.58;2.40;;;;;;;16.80;27.11;100025.06;1748150;81;21167;-52
2021/04/05 12:24:02;;;;;;;4.15;2.42;;;;;;;16.79;26.75;100015.84;1772110;81;21165;-53